Главная страница
METAR-TAF:

METAR-TAF

Аэропорты :

Draugen, Норвегия

широта: 64-21-20N, долгота: 007-47-30E, высота над уровнем моря: 0 м

Текущие метеонаблюдения

Эта сводка был подготовлена 32 минут назад, в 05:50 UTC
Ветер 36 Узел от западно-северо-западный с порывами до 48 Узел
Температура 8°C
Влажность 66%
Давление 995 hPa

METAR: ENDR 230550Z AUTO 30036G48KT 08/02 Q0995

Время: 08:22 (06:22 UTC)


TAF: отсутствует

Метеонаблюдения и прогнозы для более 4000 аэропортов (сводки METAR и TAF).

Имеющиеся станции представлены на карте желтыми и красными точками.

Чтобы увидеть название станции, наведите на нее мышь.

Затем щелкните, чтобы увидеть метеонаблюдения и метеопрогнозы.

Управление картой: чтобы увеличить масштаб, щелкните зеленые кнопки с черным крестиком; чтобы уменьшить масштаб, щелкните зеленую кнопку с тире; для просмотра соседних карт щелкайте зеленые стрелки.


METAR-TAF: